sensor_id;sensor_type;location;lat;lon;timestamp;P1;durP1;ratioP1;P2;durP2;ratioP2
68315;SDS011;55508;54.368;18.406;2023-07-13T00:01:52;7.03;;;5.63;;
68315;SDS011;55508;54.368;18.406;2023-07-13T00:04:20;5.80;;;5.32;;
68315;SDS011;55508;54.368;18.406;2023-07-13T00:06:49;7.72;;;6.90;;
68315;SDS011;55508;54.368;18.406;2023-07-13T00:09:17;7.70;;;6.82;;
68315;SDS011;55508;54.368;18.406;2023-07-13T00:11:45;7.90;;;7.10;;
68315;SDS011;55508;54.368;18.406;2023-07-13T00:14:15;7.50;;;6.53;;
68315;SDS011;55508;54.368;18.406;2023-07-13T00:16:42;8.82;;;6.40;;
68315;SDS011;55508;54.368;18.406;2023-07-13T00:19:10;8.60;;;6.40;;
68315;SDS011;55508;54.368;18.406;2023-07-13T00:21:39;10.07;;;7.22;;
68315;SDS011;55508;54.368;18.406;2023-07-13T00:24:06;6.78;;;6.18;;
68315;SDS011;55508;54.368;18.406;2023-07-13T00:26:34;11.27;;;5.78;;
68315;SDS011;55508;54.368;18.406;2023-07-13T00:29:02;6.53;;;6.00;;
68315;SDS011;55508;54.368;18.406;2023-07-13T00:31:29;7.32;;;6.68;;
68315;SDS011;55508;54.368;18.406;2023-07-13T00:33:57;9.50;;;6.40;;
68315;SDS011;55508;54.368;18.406;2023-07-13T00:36:24;9.48;;;6.35;;
68315;SDS011;55508;54.368;18.406;2023-07-13T00:38:51;9.10;;;6.57;;
68315;SDS011;55508;54.368;18.406;2023-07-13T00:41:18;6.82;;;6.20;;
68315;SDS011;55508;54.368;18.406;2023-07-13T00:43:46;6.47;;;5.53;;
68315;SDS011;55508;54.368;18.406;2023-07-13T00:46:21;6.85;;;6.25;;
68315;SDS011;55508;54.368;18.406;2023-07-13T00:48:50;11.15;;;7.60;;
68315;SDS011;55508;54.368;18.406;2023-07-13T00:51:20;10.30;;;7.22;;
68315;SDS011;55508;54.368;18.406;2023-07-13T00:53:50;12.40;;;6.82;;
68315;SDS011;55508;54.368;18.406;2023-07-13T00:56:18;10.20;;;6.85;;
68315;SDS011;55508;54.368;18.406;2023-07-13T00:58:45;8.98;;;6.30;;
68315;SDS011;55508;54.368;18.406;2023-07-13T01:01:12;11.68;;;6.55;;
68315;SDS011;55508;54.368;18.406;2023-07-13T01:03:40;7.93;;;6.03;;
68315;SDS011;55508;54.368;18.406;2023-07-13T01:06:07;12.43;;;6.85;;
68315;SDS011;55508;54.368;18.406;2023-07-13T01:08:35;7.60;;;6.28;;
68315;SDS011;55508;54.368;18.406;2023-07-13T01:11:02;6.75;;;6.15;;
68315;SDS011;55508;54.368;18.406;2023-07-13T01:13:29;6.32;;;5.40;;
68315;SDS011;55508;54.368;18.406;2023-07-13T01:15:57;8.10;;;6.07;;
68315;SDS011;55508;54.368;18.406;2023-07-13T01:18:26;7.63;;;6.78;;
68315;SDS011;55508;54.368;18.406;2023-07-13T01:20:55;6.47;;;5.88;;
68315;SDS011;55508;54.368;18.406;2023-07-13T01:23:24;10.40;;;5.90;;
68315;SDS011;55508;54.368;18.406;2023-07-13T01:25:54;6.93;;;5.47;;
68315;SDS011;55508;54.368;18.406;2023-07-13T01:28:22;10.63;;;5.50;;
68315;SDS011;55508;54.368;18.406;2023-07-13T01:30:50;6.80;;;6.13;;
68315;SDS011;55508;54.368;18.406;2023-07-13T01:33:17;6.85;;;6.25;;
68315;SDS011;55508;54.368;18.406;2023-07-13T01:35:45;8.50;;;5.55;;
68315;SDS011;55508;54.368;18.406;2023-07-13T01:38:15;10.20;;;7.25;;
68315;SDS011;55508;54.368;18.406;2023-07-13T01:40:44;8.93;;;8.02;;
68315;SDS011;55508;54.368;18.406;2023-07-13T01:43:12;8.63;;;7.78;;
68315;SDS011;55508;54.368;18.406;2023-07-13T01:45:39;10.75;;;8.43;;
68315;SDS011;55508;54.368;18.406;2023-07-13T01:48:08;10.10;;;7.70;;
68315;SDS011;55508;54.368;18.406;2023-07-13T01:50:36;11.80;;;9.32;;
68315;SDS011;55508;54.368;18.406;2023-07-13T01:53:03;9.85;;;8.15;;
68315;SDS011;55508;54.368;18.406;2023-07-13T01:55:31;17.50;;;8.63;;
68315;SDS011;55508;54.368;18.406;2023-07-13T01:57:58;11.35;;;8.90;;
68315;SDS011;55508;54.368;18.406;2023-07-13T02:00:25;9.02;;;8.05;;
68315;SDS011;55508;54.368;18.406;2023-07-13T02:02:53;10.73;;;8.55;;
68315;SDS011;55508;54.368;18.406;2023-07-13T02:05:20;11.93;;;8.43;;
68315;SDS011;55508;54.368;18.406;2023-07-13T02:07:48;9.35;;;8.32;;
68315;SDS011;55508;54.368;18.406;2023-07-13T02:10:15;9.60;;;8.63;;
68315;SDS011;55508;54.368;18.406;2023-07-13T02:12:43;13.88;;;9.57;;
68315;SDS011;55508;54.368;18.406;2023-07-13T02:15:10;16.95;;;10.77;;
68315;SDS011;55508;54.368;18.406;2023-07-13T02:17:38;12.40;;;10.35;;
68315;SDS011;55508;54.368;18.406;2023-07-13T02:20:05;11.95;;;9.80;;
68315;SDS011;55508;54.368;18.406;2023-07-13T02:22:33;11.25;;;8.90;;
68315;SDS011;55508;54.368;18.406;2023-07-13T02:25:00;13.05;;;9.20;;
68315;SDS011;55508;54.368;18.406;2023-07-13T02:27:27;13.77;;;9.27;;
68315;SDS011;55508;54.368;18.406;2023-07-13T02:29:54;10.52;;;9.55;;
68315;SDS011;55508;54.368;18.406;2023-07-13T02:32:21;18.15;;;9.98;;
68315;SDS011;55508;54.368;18.406;2023-07-13T02:34:50;15.82;;;10.27;;
68315;SDS011;55508;54.368;18.406;2023-07-13T02:37:17;15.43;;;10.77;;
68315;SDS011;55508;54.368;18.406;2023-07-13T02:39:44;18.60;;;10.18;;
68315;SDS011;55508;54.368;18.406;2023-07-13T02:42:12;12.93;;;9.18;;
68315;SDS011;55508;54.368;18.406;2023-07-13T02:44:39;14.38;;;9.60;;
68315;SDS011;55508;54.368;18.406;2023-07-13T02:47:06;13.77;;;9.27;;
68315;SDS011;55508;54.368;18.406;2023-07-13T02:49:33;17.02;;;9.98;;
68315;SDS011;55508;54.368;18.406;2023-07-13T02:52:00;10.45;;;9.55;;
68315;SDS011;55508;54.368;18.406;2023-07-13T02:54:27;11.95;;;8.95;;
68315;SDS011;55508;54.368;18.406;2023-07-13T02:56:54;9.27;;;8.40;;
68315;SDS011;55508;54.368;18.406;2023-07-13T02:59:21;9.68;;;8.25;;
68315;SDS011;55508;54.368;18.406;2023-07-13T03:01:48;11.10;;;8.63;;
68315;SDS011;55508;54.368;18.406;2023-07-13T03:04:15;10.02;;;8.38;;
68315;SDS011;55508;54.368;18.406;2023-07-13T03:06:46;7.95;;;6.68;;
68315;SDS011;55508;54.368;18.406;2023-07-13T03:09:14;9.38;;;6.60;;
68315;SDS011;55508;54.368;18.406;2023-07-13T03:11:47;15.45;;;8.48;;
68315;SDS011;55508;54.368;18.406;2023-07-13T03:14:21;16.42;;;9.23;;
68315;SDS011;55508;54.368;18.406;2023-07-13T03:16:49;14.38;;;9.00;;
68315;SDS011;55508;54.368;18.406;2023-07-13T03:19:18;16.13;;;8.95;;
68315;SDS011;55508;54.368;18.406;2023-07-13T03:21:49;14.30;;;8.63;;
68315;SDS011;55508;54.368;18.406;2023-07-13T03:24:16;12.05;;;8.60;;
68315;SDS011;55508;54.368;18.406;2023-07-13T03:26:43;12.68;;;8.23;;
68315;SDS011;55508;54.368;18.406;2023-07-13T03:29:10;14.38;;;7.65;;
68315;SDS011;55508;54.368;18.406;2023-07-13T03:31:37;16.75;;;7.85;;
68315;SDS011;55508;54.368;18.406;2023-07-13T03:34:05;15.45;;;7.00;;
68315;SDS011;55508;54.368;18.406;2023-07-13T03:36:32;13.20;;;6.53;;
68315;SDS011;55508;54.368;18.406;2023-07-13T03:39:04;9.35;;;6.57;;
68315;SDS011;55508;54.368;18.406;2023-07-13T03:41:39;18.55;;;6.85;;
68315;SDS011;55508;54.368;18.406;2023-07-13T03:44:06;13.02;;;6.10;;
68315;SDS011;55508;54.368;18.406;2023-07-13T03:46:33;9.02;;;5.30;;
68315;SDS011;55508;54.368;18.406;2023-07-13T03:49:01;9.02;;;5.18;;
68315;SDS011;55508;54.368;18.406;2023-07-13T03:51:28;9.63;;;4.82;;
68315;SDS011;55508;54.368;18.406;2023-07-13T03:53:55;6.53;;;4.50;;
68315;SDS011;55508;54.368;18.406;2023-07-13T03:56:22;6.00;;;4.22;;
68315;SDS011;55508;54.368;18.406;2023-07-13T03:58:50;9.18;;;3.83;;
68315;SDS011;55508;54.368;18.406;2023-07-13T04:01:19;8.18;;;3.40;;
68315;SDS011;55508;54.368;18.406;2023-07-13T04:03:48;6.75;;;3.13;;
68315;SDS011;55508;54.368;18.406;2023-07-13T04:06:20;9.07;;;3.15;;
68315;SDS011;55508;54.368;18.406;2023-07-13T04:08:52;5.30;;;3.15;;
68315;SDS011;55508;54.368;18.406;2023-07-13T04:11:21;5.45;;;3.42;;
68315;SDS011;55508;54.368;18.406;2023-07-13T04:13:50;7.90;;;3.20;;
68315;SDS011;55508;54.368;18.406;2023-07-13T04:16:18;6.53;;;3.13;;
68315;SDS011;55508;54.368;18.406;2023-07-13T04:18:46;8.98;;;2.80;;
68315;SDS011;55508;54.368;18.406;2023-07-13T04:21:13;8.68;;;3.15;;
68315;SDS011;55508;54.368;18.406;2023-07-13T04:23:41;6.93;;;2.85;;
68315;SDS011;55508;54.368;18.406;2023-07-13T04:26:08;8.85;;;3.15;;
68315;SDS011;55508;54.368;18.406;2023-07-13T04:28:36;7.22;;;2.90;;
68315;SDS011;55508;54.368;18.406;2023-07-13T04:31:03;9.95;;;2.75;;
68315;SDS011;55508;54.368;18.406;2023-07-13T04:33:30;5.22;;;2.90;;
68315;SDS011;55508;54.368;18.406;2023-07-13T04:35:57;6.80;;;2.53;;
68315;SDS011;55508;54.368;18.406;2023-07-13T04:38:26;4.80;;;2.38;;
68315;SDS011;55508;54.368;18.406;2023-07-13T04:40:55;10.35;;;2.88;;
68315;SDS011;55508;54.368;18.406;2023-07-13T04:43:23;5.18;;;2.30;;
68315;SDS011;55508;54.368;18.406;2023-07-13T04:45:51;6.88;;;2.47;;
68315;SDS011;55508;54.368;18.406;2023-07-13T04:48:18;5.07;;;2.20;;
68315;SDS011;55508;54.368;18.406;2023-07-13T04:50:46;5.65;;;2.35;;
68315;SDS011;55508;54.368;18.406;2023-07-13T04:53:14;7.65;;;2.70;;
68315;SDS011;55508;54.368;18.406;2023-07-13T04:55:42;6.78;;;2.40;;
68315;SDS011;55508;54.368;18.406;2023-07-13T04:58:09;6.93;;;2.25;;
68315;SDS011;55508;54.368;18.406;2023-07-13T05:00:36;5.28;;;2.60;;
68315;SDS011;55508;54.368;18.406;2023-07-13T05:03:03;7.15;;;2.17;;
68315;SDS011;55508;54.368;18.406;2023-07-13T05:05:31;7.82;;;2.00;;
68315;SDS011;55508;54.368;18.406;2023-07-13T05:07:58;5.65;;;2.20;;
68315;SDS011;55508;54.368;18.406;2023-07-13T05:10:25;4.32;;;1.80;;
68315;SDS011;55508;54.368;18.406;2023-07-13T05:12:53;6.28;;;1.60;;
68315;SDS011;55508;54.368;18.406;2023-07-13T05:15:21;5.22;;;2.00;;
68315;SDS011;55508;54.368;18.406;2023-07-13T05:17:49;5.10;;;1.73;;
68315;SDS011;55508;54.368;18.406;2023-07-13T05:20:17;5.65;;;2.13;;
68315;SDS011;55508;54.368;18.406;2023-07-13T05:22:45;4.40;;;2.15;;
68315;SDS011;55508;54.368;18.406;2023-07-13T05:25:15;8.10;;;4.55;;
68315;SDS011;55508;54.368;18.406;2023-07-13T05:27:43;8.27;;;2.33;;
68315;SDS011;55508;54.368;18.406;2023-07-13T05:30:12;6.13;;;1.92;;
68315;SDS011;55508;54.368;18.406;2023-07-13T05:32:40;7.45;;;1.67;;
68315;SDS011;55508;54.368;18.406;2023-07-13T05:35:08;3.85;;;1.90;;
68315;SDS011;55508;54.368;18.406;2023-07-13T05:37:36;2.95;;;1.80;;
68315;SDS011;55508;54.368;18.406;2023-07-13T05:40:04;6.10;;;2.00;;
68315;SDS011;55508;54.368;18.406;2023-07-13T05:42:32;6.78;;;1.83;;
68315;SDS011;55508;54.368;18.406;2023-07-13T05:45:01;3.65;;;1.77;;
68315;SDS011;55508;54.368;18.406;2023-07-13T05:47:29;6.30;;;2.05;;
68315;SDS011;55508;54.368;18.406;2023-07-13T05:49:56;4.80;;;1.77;;
68315;SDS011;55508;54.368;18.406;2023-07-13T05:52:23;6.82;;;1.65;;
68315;SDS011;55508;54.368;18.406;2023-07-13T05:54:50;4.05;;;1.58;;
68315;SDS011;55508;54.368;18.406;2023-07-13T05:57:18;4.55;;;1.70;;
68315;SDS011;55508;54.368;18.406;2023-07-13T05:59:45;6.38;;;2.00;;
68315;SDS011;55508;54.368;18.406;2023-07-13T06:02:12;4.78;;;2.28;;
68315;SDS011;55508;54.368;18.406;2023-07-13T06:04:39;2.95;;;1.45;;
68315;SDS011;55508;54.368;18.406;2023-07-13T06:07:06;3.55;;;1.60;;
68315;SDS011;55508;54.368;18.406;2023-07-13T06:09:33;5.00;;;1.38;;
68315;SDS011;55508;54.368;18.406;2023-07-13T06:12:00;4.60;;;1.92;;
68315;SDS011;55508;54.368;18.406;2023-07-13T06:14:27;4.82;;;1.20;;
68315;SDS011;55508;54.368;18.406;2023-07-13T06:16:54;5.60;;;1.48;;
68315;SDS011;55508;54.368;18.406;2023-07-13T06:19:21;4.75;;;1.55;;
68315;SDS011;55508;54.368;18.406;2023-07-13T06:21:49;8.95;;;1.98;;
68315;SDS011;55508;54.368;18.406;2023-07-13T06:24:16;4.32;;;1.70;;
68315;SDS011;55508;54.368;18.406;2023-07-13T06:26:43;5.22;;;1.75;;
68315;SDS011;55508;54.368;18.406;2023-07-13T06:29:10;4.78;;;1.63;;
68315;SDS011;55508;54.368;18.406;2023-07-13T06:31:37;3.00;;;1.23;;
68315;SDS011;55508;54.368;18.406;2023-07-13T06:34:05;2.17;;;1.17;;
68315;SDS011;55508;54.368;18.406;2023-07-13T06:36:32;6.05;;;1.23;;
68315;SDS011;55508;54.368;18.406;2023-07-13T06:38:59;3.40;;;1.45;;
68315;SDS011;55508;54.368;18.406;2023-07-13T06:41:26;4.85;;;1.60;;
68315;SDS011;55508;54.368;18.406;2023-07-13T06:43:53;3.70;;;1.30;;
68315;SDS011;55508;54.368;18.406;2023-07-13T06:46:21;3.75;;;1.35;;
68315;SDS011;55508;54.368;18.406;2023-07-13T06:48:49;3.50;;;1.50;;
68315;SDS011;55508;54.368;18.406;2023-07-13T06:51:47;6.00;;;1.52;;
68315;SDS011;55508;54.368;18.406;2023-07-13T06:54:18;5.13;;;1.20;;
68315;SDS011;55508;54.368;18.406;2023-07-13T06:56:45;3.78;;;1.50;;
68315;SDS011;55508;54.368;18.406;2023-07-13T06:59:12;4.85;;;1.70;;
68315;SDS011;55508;54.368;18.406;2023-07-13T07:01:39;3.08;;;1.50;;
68315;SDS011;55508;54.368;18.406;2023-07-13T07:04:07;4.05;;;1.40;;
68315;SDS011;55508;54.368;18.406;2023-07-13T07:06:35;4.93;;;1.70;;
68315;SDS011;55508;54.368;18.406;2023-07-13T07:09:02;3.00;;;1.40;;
68315;SDS011;55508;54.368;18.406;2023-07-13T07:11:29;4.10;;;1.40;;
68315;SDS011;55508;54.368;18.406;2023-07-13T07:13:56;5.22;;;1.75;;
68315;SDS011;55508;54.368;18.406;2023-07-13T07:16:24;4.35;;;1.17;;
68315;SDS011;55508;54.368;18.406;2023-07-13T07:18:51;6.10;;;1.30;;
68315;SDS011;55508;54.368;18.406;2023-07-13T07:21:18;5.15;;;1.58;;
68315;SDS011;55508;54.368;18.406;2023-07-13T07:23:45;3.45;;;1.38;;
68315;SDS011;55508;54.368;18.406;2023-07-13T07:26:12;4.88;;;1.38;;
68315;SDS011;55508;54.368;18.406;2023-07-13T07:28:39;3.10;;;1.20;;
68315;SDS011;55508;54.368;18.406;2023-07-13T07:31:12;4.93;;;1.30;;
68315;SDS011;55508;54.368;18.406;2023-07-13T07:33:42;4.43;;;1.42;;
68315;SDS011;55508;54.368;18.406;2023-07-13T07:36:10;3.67;;;1.30;;
68315;SDS011;55508;54.368;18.406;2023-07-13T07:38:41;2.00;;;1.30;;
68315;SDS011;55508;54.368;18.406;2023-07-13T07:41:08;5.07;;;1.15;;
68315;SDS011;55508;54.368;18.406;2023-07-13T07:43:38;4.07;;;1.40;;
68315;SDS011;55508;54.368;18.406;2023-07-13T07:46:05;4.55;;;0.98;;
68315;SDS011;55508;54.368;18.406;2023-07-13T07:48:33;2.78;;;1.13;;
68315;SDS011;55508;54.368;18.406;2023-07-13T07:51:01;5.20;;;1.30;;
68315;SDS011;55508;54.368;18.406;2023-07-13T07:53:28;2.15;;;1.17;;
68315;SDS011;55508;54.368;18.406;2023-07-13T07:55:58;1.67;;;1.00;;
68315;SDS011;55508;54.368;18.406;2023-07-13T07:58:45;4.03;;;0.93;;
68315;SDS011;55508;54.368;18.406;2023-07-13T08:01:15;4.45;;;1.40;;
68315;SDS011;55508;54.368;18.406;2023-07-13T08:03:45;2.47;;;1.23;;
68315;SDS011;55508;54.368;18.406;2023-07-13T08:06:15;2.50;;;1.00;;
68315;SDS011;55508;54.368;18.406;2023-07-13T08:09:03;2.13;;;1.05;;
68315;SDS011;55508;54.368;18.406;2023-07-13T08:11:31;4.25;;;1.20;;
68315;SDS011;55508;54.368;18.406;2023-07-13T08:14:01;2.45;;;0.70;;
68315;SDS011;55508;54.368;18.406;2023-07-13T08:16:27;2.78;;;0.80;;
68315;SDS011;55508;54.368;18.406;2023-07-13T08:18:54;3.50;;;0.65;;
68315;SDS011;55508;54.368;18.406;2023-07-13T08:21:21;3.67;;;1.08;;
68315;SDS011;55508;54.368;18.406;2023-07-13T08:23:49;2.35;;;0.90;;
68315;SDS011;55508;54.368;18.406;2023-07-13T08:26:16;1.92;;;0.90;;
68315;SDS011;55508;54.368;18.406;2023-07-13T08:28:43;2.42;;;0.73;;
68315;SDS011;55508;54.368;18.406;2023-07-13T08:31:10;3.05;;;0.93;;
68315;SDS011;55508;54.368;18.406;2023-07-13T08:33:38;3.72;;;1.10;;
68315;SDS011;55508;54.368;18.406;2023-07-13T08:36:07;2.28;;;1.02;;
68315;SDS011;55508;54.368;18.406;2023-07-13T08:38:34;3.40;;;1.30;;
68315;SDS011;55508;54.368;18.406;2023-07-13T08:41:02;3.42;;;1.27;;
68315;SDS011;55508;54.368;18.406;2023-07-13T08:43:38;3.03;;;1.02;;
68315;SDS011;55508;54.368;18.406;2023-07-13T08:46:09;2.47;;;1.00;;
68315;SDS011;55508;54.368;18.406;2023-07-13T08:48:48;2.40;;;0.63;;
68315;SDS011;55508;54.368;18.406;2023-07-13T08:57:08;2.10;;;0.93;;
68315;SDS011;55508;54.368;18.406;2023-07-13T08:59:39;4.45;;;1.00;;
68315;SDS011;55508;54.368;18.406;2023-07-13T09:02:20;5.90;;;1.02;;
68315;SDS011;55508;54.368;18.406;2023-07-13T09:05:02;5.50;;;1.10;;
68315;SDS011;55508;54.368;18.406;2023-07-13T09:10:44;3.55;;;0.90;;
68315;SDS011;55508;54.368;18.406;2023-07-13T09:13:19;2.22;;;1.13;;
68315;SDS011;55508;54.368;18.406;2023-07-13T09:16:01;4.90;;;0.95;;
68315;SDS011;55508;54.368;18.406;2023-07-13T09:18:32;1.85;;;0.98;;
68315;SDS011;55508;54.368;18.406;2023-07-13T09:21:08;4.53;;;0.90;;
68315;SDS011;55508;54.368;18.406;2023-07-13T09:23:38;3.10;;;0.85;;
68315;SDS011;55508;54.368;18.406;2023-07-13T09:26:14;3.13;;;0.80;;
68315;SDS011;55508;54.368;18.406;2023-07-13T09:28:45;3.00;;;1.20;;
68315;SDS011;55508;54.368;18.406;2023-07-13T09:31:15;3.17;;;1.10;;
68315;SDS011;55508;54.368;18.406;2023-07-13T09:33:44;2.03;;;0.77;;
68315;SDS011;55508;54.368;18.406;2023-07-13T09:36:18;1.50;;;0.73;;
68315;SDS011;55508;54.368;18.406;2023-07-13T09:38:58;1.77;;;0.75;;
68315;SDS011;55508;54.368;18.406;2023-07-13T09:44:29;4.68;;;0.85;;
68315;SDS011;55508;54.368;18.406;2023-07-13T09:46:59;2.03;;;0.80;;
68315;SDS011;55508;54.368;18.406;2023-07-13T09:49:27;2.72;;;0.80;;
68315;SDS011;55508;54.368;18.406;2023-07-13T09:52:02;2.92;;;1.00;;
68315;SDS011;55508;54.368;18.406;2023-07-13T09:54:33;2.17;;;0.80;;
68315;SDS011;55508;54.368;18.406;2023-07-13T09:57:02;2.10;;;1.02;;
68315;SDS011;55508;54.368;18.406;2023-07-13T09:59:39;1.50;;;0.80;;
68315;SDS011;55508;54.368;18.406;2023-07-13T10:04:57;2.50;;;0.80;;
68315;SDS011;55508;54.368;18.406;2023-07-13T10:07:32;4.93;;;0.70;;
68315;SDS011;55508;54.368;18.406;2023-07-13T10:10:02;5.18;;;0.70;;
68315;SDS011;55508;54.368;18.406;2023-07-13T10:12:30;1.30;;;0.73;;
68315;SDS011;55508;54.368;18.406;2023-07-13T10:15:02;6.70;;;0.80;;
68315;SDS011;55508;54.368;18.406;2023-07-13T10:17:49;7.22;;;1.30;;
68315;SDS011;55508;54.368;18.406;2023-07-13T10:20:18;10.88;;;1.45;;
68315;SDS011;55508;54.368;18.406;2023-07-13T10:25:38;3.45;;;1.10;;
68315;SDS011;55508;54.368;18.406;2023-07-13T10:28:11;4.50;;;1.20;;
68315;SDS011;55508;54.368;18.406;2023-07-13T10:30:46;5.07;;;1.33;;
68315;SDS011;55508;54.368;18.406;2023-07-13T10:33:14;4.95;;;1.52;;
68315;SDS011;55508;54.368;18.406;2023-07-13T10:35:43;2.47;;;1.40;;
68315;SDS011;55508;54.368;18.406;2023-07-13T10:38:11;2.88;;;1.25;;
68315;SDS011;55508;54.368;18.406;2023-07-13T10:40:45;1.67;;;1.10;;
68315;SDS011;55508;54.368;18.406;2023-07-13T10:43:37;2.15;;;0.95;;
68315;SDS011;55508;54.368;18.406;2023-07-13T10:46:10;2.10;;;1.00;;
68315;SDS011;55508;54.368;18.406;2023-07-13T10:48:38;2.15;;;0.90;;
68315;SDS011;55508;54.368;18.406;2023-07-13T10:51:08;4.60;;;1.00;;
68315;SDS011;55508;54.368;18.406;2023-07-13T10:53:38;2.53;;;1.10;;
68315;SDS011;55508;54.368;18.406;2023-07-13T10:59:09;5.47;;;1.17;;
68315;SDS011;55508;54.368;18.406;2023-07-13T11:01:50;2.05;;;0.82;;
68315;SDS011;55508;54.368;18.406;2023-07-13T11:04:29;3.70;;;0.88;;
68315;SDS011;55508;54.368;18.406;2023-07-13T11:09:55;3.70;;;0.90;;
68315;SDS011;55508;54.368;18.406;2023-07-13T11:12:27;2.17;;;0.80;;
68315;SDS011;55508;54.368;18.406;2023-07-13T11:15:02;3.10;;;1.00;;
68315;SDS011;55508;54.368;18.406;2023-07-13T11:17:35;2.58;;;1.10;;
68315;SDS011;55508;54.368;18.406;2023-07-13T11:20:19;2.35;;;0.68;;
68315;SDS011;55508;54.368;18.406;2023-07-13T11:22:51;3.58;;;0.95;;
68315;SDS011;55508;54.368;18.406;2023-07-13T11:25:28;2.33;;;0.90;;
68315;SDS011;55508;54.368;18.406;2023-07-13T11:36:19;3.67;;;1.25;;
68315;SDS011;55508;54.368;18.406;2023-07-13T11:41:52;4.45;;;1.10;;
68315;SDS011;55508;54.368;18.406;2023-07-13T11:46:51;5.32;;;0.95;;
68315;SDS011;55508;54.368;18.406;2023-07-13T11:49:22;3.05;;;1.00;;
68315;SDS011;55508;54.368;18.406;2023-07-13T11:51:51;2.72;;;1.00;;
68315;SDS011;55508;54.368;18.406;2023-07-13T11:54:28;2.78;;;0.98;;
68315;SDS011;55508;54.368;18.406;2023-07-13T11:56:58;1.60;;;1.00;;
68315;SDS011;55508;54.368;18.406;2023-07-13T11:59:33;2.58;;;0.95;;
68315;SDS011;55508;54.368;18.406;2023-07-13T12:02:08;3.10;;;0.80;;
68315;SDS011;55508;54.368;18.406;2023-07-13T12:04:42;3.33;;;0.90;;
68315;SDS011;55508;54.368;18.406;2023-07-13T12:07:17;4.25;;;1.00;;
68315;SDS011;55508;54.368;18.406;2023-07-13T12:09:45;1.90;;;0.70;;
68315;SDS011;55508;54.368;18.406;2023-07-13T12:12:13;2.92;;;0.90;;
68315;SDS011;55508;54.368;18.406;2023-07-13T12:14:41;3.88;;;0.88;;
68315;SDS011;55508;54.368;18.406;2023-07-13T12:17:16;1.55;;;0.75;;
68315;SDS011;55508;54.368;18.406;2023-07-13T12:19:51;3.20;;;0.80;;
68315;SDS011;55508;54.368;18.406;2023-07-13T12:22:19;2.50;;;0.90;;
68315;SDS011;55508;54.368;18.406;2023-07-13T12:24:47;1.02;;;0.60;;
68315;SDS011;55508;54.368;18.406;2023-07-13T12:27:19;1.20;;;0.70;;
68315;SDS011;55508;54.368;18.406;2023-07-13T12:29:50;2.55;;;0.98;;
68315;SDS011;55508;54.368;18.406;2023-07-13T12:32:20;1.48;;;0.70;;
68315;SDS011;55508;54.368;18.406;2023-07-13T12:37:42;4.63;;;1.00;;
68315;SDS011;55508;54.368;18.406;2023-07-13T12:40:13;2.95;;;0.90;;
68315;SDS011;55508;54.368;18.406;2023-07-13T12:42:49;1.95;;;1.13;;
68315;SDS011;55508;54.368;18.406;2023-07-13T12:45:22;2.88;;;1.30;;
68315;SDS011;55508;54.368;18.406;2023-07-13T12:47:56;1.85;;;1.30;;
68315;SDS011;55508;54.368;18.406;2023-07-13T12:50:37;4.50;;;1.10;;
68315;SDS011;55508;54.368;18.406;2023-07-13T12:53:13;3.38;;;1.25;;
68315;SDS011;55508;54.368;18.406;2023-07-13T12:55:43;1.80;;;1.10;;
68315;SDS011;55508;54.368;18.406;2023-07-13T12:58:18;2.78;;;1.10;;
68315;SDS011;55508;54.368;18.406;2023-07-13T13:00:55;2.17;;;1.00;;
68315;SDS011;55508;54.368;18.406;2023-07-13T13:03:35;2.90;;;0.90;;
68315;SDS011;55508;54.368;18.406;2023-07-13T13:06:05;5.35;;;1.30;;
68315;SDS011;55508;54.368;18.406;2023-07-13T13:08:50;2.10;;;1.00;;
68315;SDS011;55508;54.368;18.406;2023-07-13T13:11:19;2.97;;;1.20;;
68315;SDS011;55508;54.368;18.406;2023-07-13T13:13:47;2.35;;;1.08;;
68315;SDS011;55508;54.368;18.406;2023-07-13T13:16:21;3.45;;;1.20;;
68315;SDS011;55508;54.368;18.406;2023-07-13T13:18:50;1.42;;;1.10;;
68315;SDS011;55508;54.368;18.406;2023-07-13T13:21:18;3.75;;;1.15;;
68315;SDS011;55508;54.368;18.406;2023-07-13T13:23:46;3.03;;;0.90;;
68315;SDS011;55508;54.368;18.406;2023-07-13T13:26:14;3.72;;;1.00;;
68315;SDS011;55508;54.368;18.406;2023-07-13T13:28:45;3.85;;;1.02;;
68315;SDS011;55508;54.368;18.406;2023-07-13T13:31:14;3.72;;;1.00;;
68315;SDS011;55508;54.368;18.406;2023-07-13T13:33:43;2.25;;;0.95;;
68315;SDS011;55508;54.368;18.406;2023-07-13T13:36:13;4.28;;;1.10;;
68315;SDS011;55508;54.368;18.406;2023-07-13T13:38:45;3.45;;;1.45;;
68315;SDS011;55508;54.368;18.406;2023-07-13T13:41:13;3.58;;;0.95;;
68315;SDS011;55508;54.368;18.406;2023-07-13T13:43:41;5.57;;;1.08;;
68315;SDS011;55508;54.368;18.406;2023-07-13T13:46:16;1.77;;;0.85;;
68315;SDS011;55508;54.368;18.406;2023-07-13T13:48:45;5.05;;;1.02;;
68315;SDS011;55508;54.368;18.406;2023-07-13T13:51:18;2.45;;;1.17;;
68315;SDS011;55508;54.368;18.406;2023-07-13T13:53:47;23.23;;;2.28;;
68315;SDS011;55508;54.368;18.406;2023-07-13T13:56:14;3.92;;;1.17;;
68315;SDS011;55508;54.368;18.406;2023-07-13T13:58:42;2.22;;;1.13;;
68315;SDS011;55508;54.368;18.406;2023-07-13T14:01:19;5.10;;;1.15;;
68315;SDS011;55508;54.368;18.406;2023-07-13T14:03:48;3.88;;;1.05;;
68315;SDS011;55508;54.368;18.406;2023-07-13T14:06:18;2.72;;;0.90;;
68315;SDS011;55508;54.368;18.406;2023-07-13T14:08:44;1.45;;;0.70;;
68315;SDS011;55508;54.368;18.406;2023-07-13T14:11:14;5.43;;;1.08;;
68315;SDS011;55508;54.368;18.406;2023-07-13T14:13:43;2.28;;;0.90;;
68315;SDS011;55508;54.368;18.406;2023-07-13T14:16:18;1.42;;;0.93;;
68315;SDS011;55508;54.368;18.406;2023-07-13T14:18:48;1.85;;;1.00;;
68315;SDS011;55508;54.368;18.406;2023-07-13T14:21:19;7.93;;;0.82;;
68315;SDS011;55508;54.368;18.406;2023-07-13T14:23:48;2.47;;;0.80;;
68315;SDS011;55508;54.368;18.406;2023-07-13T14:26:23;1.52;;;0.88;;
68315;SDS011;55508;54.368;18.406;2023-07-13T14:28:52;1.55;;;0.70;;
68315;SDS011;55508;54.368;18.406;2023-07-13T14:31:22;3.25;;;1.00;;
68315;SDS011;55508;54.368;18.406;2023-07-13T14:33:56;1.55;;;0.80;;
68315;SDS011;55508;54.368;18.406;2023-07-13T14:36:25;1.63;;;0.70;;
68315;SDS011;55508;54.368;18.406;2023-07-13T14:38:56;1.63;;;0.75;;
68315;SDS011;55508;54.368;18.406;2023-07-13T14:41:24;1.90;;;0.77;;
68315;SDS011;55508;54.368;18.406;2023-07-13T14:43:52;5.32;;;0.98;;
68315;SDS011;55508;54.368;18.406;2023-07-13T14:46:31;2.75;;;0.90;;
68315;SDS011;55508;54.368;18.406;2023-07-13T14:49:04;3.85;;;1.27;;
68315;SDS011;55508;54.368;18.406;2023-07-13T14:51:33;2.65;;;0.88;;
68315;SDS011;55508;54.368;18.406;2023-07-13T14:54:04;4.20;;;1.20;;
68315;SDS011;55508;54.368;18.406;2023-07-13T14:58:59;3.30;;;0.90;;
68315;SDS011;55508;54.368;18.406;2023-07-13T15:01:26;3.30;;;0.88;;
68315;SDS011;55508;54.368;18.406;2023-07-13T15:03:53;3.53;;;0.93;;
68315;SDS011;55508;54.368;18.406;2023-07-13T15:06:20;2.88;;;0.60;;
68315;SDS011;55508;54.368;18.406;2023-07-13T15:08:47;3.88;;;0.80;;
68315;SDS011;55508;54.368;18.406;2023-07-13T15:11:15;3.30;;;0.95;;
68315;SDS011;55508;54.368;18.406;2023-07-13T15:13:43;2.72;;;0.80;;
68315;SDS011;55508;54.368;18.406;2023-07-13T15:16:23;4.78;;;1.20;;
68315;SDS011;55508;54.368;18.406;2023-07-13T15:18:52;1.50;;;0.70;;
68315;SDS011;55508;54.368;18.406;2023-07-13T15:21:21;1.10;;;0.63;;
68315;SDS011;55508;54.368;18.406;2023-07-13T15:23:50;1.08;;;0.65;;
68315;SDS011;55508;54.368;18.406;2023-07-13T15:26:18;2.97;;;0.80;;
68315;SDS011;55508;54.368;18.406;2023-07-13T15:28:46;5.03;;;0.80;;
68315;SDS011;55508;54.368;18.406;2023-07-13T15:31:18;1.95;;;0.90;;